Time;durP1;ratioP1;P1;durP2;ratioP2;P2;SDS_P1;SDS_P2;PMS_P1;PMS_P2;Temp;Humidity;BMP_temperature;BMP_pressure;BME280_temperature;BME280_humidity;BME280_pressure;Samples;Min_cycle;Max_cycle;Signal;HPM_P1;HPM_P2
2021/04/19 08:24:29;;;;;;;24.90;9.60;;;21.60;90.60;;;;;;6091738;23;20187;-66
2021/04/19 08:26:59;;;;;;;22.15;10.77;;;21.10;90.30;;;;;;6095990;23;20183;-71
2021/04/19 08:29:36;;;;;;;21.05;10.55;;;21.30;90.60;;;;;;6085298;23;20211;-67
2021/04/19 08:32:03;;;;;;;21.48;9.25;;;21.40;90.70;;;;;;6068067;23;20181;-81
2021/04/19 08:34:30;;;;;;;19.90;9.02;;;21.40;90.40;;;;;;6067811;23;20196;-68
2021/04/19 08:36:59;;;;;;;17.52;8.43;;;21.30;90.60;;;;;;6067942;23;20184;-69
2021/04/19 08:39:26;;;;;;;19.85;9.10;;;21.00;90.30;;;;;;6067716;23;20224;-67
2021/04/19 08:41:54;;;;;;;19.20;8.80;;;21.10;89.90;;;;;;6067917;23;20184;-67
2021/04/19 08:44:21;;;;;;;21.73;10.13;;;21.00;88.50;;;;;;6067298;23;20184;-70
2021/04/19 08:46:47;;;;;;;21.08;10.05;;;21.30;88.30;;;;;;6067536;23;20651;-68
2021/04/19 08:49:14;;;;;;;21.98;10.18;;;21.00;90.00;;;;;;6068162;23;20211;-67
2021/04/19 08:51:40;;;;;;;18.63;8.70;;;20.80;90.50;;;;;;6067644;23;20190;-67
2021/04/19 08:54:06;;;;;;;18.30;8.18;;;20.40;90.60;;;;;;6066801;23;20200;-67
2021/04/19 08:56:33;;;;;;;18.40;8.38;;;20.40;88.30;;;;;;6068173;23;20181;-67
2021/04/19 08:59:01;;;;;;;21.55;9.35;;;20.20;90.20;;;;;;6066992;23;20614;-67
2021/04/19 09:01:29;;;;;;;18.33;8.23;;;19.90;91.00;;;;;;6067947;23;20244;-67
2021/04/19 09:04:06;;;;;;;18.63;8.30;;;19.70;88.90;;;;;;6067973;23;20180;-67
2021/04/19 09:06:43;;;;;;;19.60;8.02;;;19.70;89.10;;;;;;6067377;23;20180;-66
2021/04/19 09:09:13;;;;;;;15.70;7.78;;;19.90;90.20;;;;;;6067618;23;20214;-67
2021/04/19 09:11:40;;;;;;;22.08;8.85;;;20.00;90.10;;;;;;6067825;23;20184;-69
2021/04/19 09:14:10;;;;;;;16.75;7.55;;;19.90;89.90;;;;;;6067954;23;20186;-67
2021/04/19 09:16:38;;;;;;;16.30;8.47;;;19.60;90.20;;;;;;6067706;23;20263;-69
2021/04/19 09:19:06;;;;;;;20.88;8.02;;;19.80;90.30;;;;;;6067583;23;20243;-68
2021/04/19 09:21:34;;;;;;;19.48;9.82;;;19.60;90.40;;;;;;6067678;23;20184;-68
2021/04/19 09:24:01;;;;;;;21.77;8.52;;;19.90;90.80;;;;;;6067432;23;20188;-68
2021/04/19 09:26:47;;;;;;;21.40;9.48;;;20.40;90.30;;;;;;6067912;23;20195;-68
2021/04/19 09:29:46;;;;;;;19.77;9.50;;;20.60;90.40;;;;;;6067893;23;20295;-67
2021/04/19 09:32:24;;;;;;;17.17;7.40;;;20.30;90.50;;;;;;6068118;23;20270;-66
2021/04/19 09:34:53;;;;;;;17.85;8.57;;;20.30;90.00;;;;;;6067322;23;20188;-66
2021/04/19 09:37:22;;;;;;;15.07;7.63;;;20.20;90.10;;;;;;6068958;23;20187;-67
2021/04/19 09:39:51;;;;;;;16.30;7.63;;;19.90;89.60;;;;;;6069286;23;20279;-67
2021/04/19 09:42:19;;;;;;;16.33;8.00;;;19.90;90.00;;;;;;6069212;23;20184;-67
2021/04/19 09:44:53;;;;;;;17.67;7.40;;;20.10;89.00;;;;;;6069374;23;20188;-67
2021/04/19 09:47:49;;;;;;;13.63;6.97;;;19.50;90.40;;;;;;6070047;23;20186;-66
2021/04/19 09:50:17;;;;;;;10.73;5.03;;;18.90;88.50;;;;;;6069265;23;20200;-66
2021/04/19 09:52:48;;;;;;;13.17;5.30;;;18.50;85.30;;;;;;6069024;23;20191;-66
2021/04/19 09:55:14;;;;;;;13.43;5.10;;;18.30;89.10;;;;;;6068497;23;20185;-66
2021/04/19 09:57:41;;;;;;;11.30;5.40;;;17.80;89.10;;;;;;6069079;23;20209;-67
2021/04/19 10:00:10;;;;;;;12.90;5.60;;;17.80;87.70;;;;;;6069454;23;20211;-67
2021/04/19 10:02:40;;;;;;;11.50;4.80;;;17.50;88.50;;;;;;6069424;23;20186;-68
2021/04/19 10:05:09;;;;;;;10.27;5.33;;;17.00;90.10;;;;;;6068981;23;20180;-67
2021/04/19 10:07:38;;;;;;;11.43;5.67;;;16.80;90.70;;;;;;6069427;23;20180;-71
2021/04/19 10:10:06;;;;;;;11.40;5.70;;;16.70;90.70;;;;;;6068042;23;20200;-76
2021/04/19 10:12:35;;;;;;;15.47;6.00;;;16.60;90.80;;;;;;6069404;23;20181;-72
2021/04/19 10:15:02;;;;;;;11.97;5.40;;;16.40;91.50;;;;;;6069767;23;20503;-76
2021/04/19 10:17:33;;;;;;;11.63;5.33;;;16.10;91.30;;;;;;6069200;23;20192;-76
2021/04/19 10:20:19;;;;;;;10.37;5.40;;;16.00;91.90;;;;;;6069590;23;20258;-76
2021/04/19 10:22:45;;;;;;;10.70;5.33;;;16.10;93.60;;;;;;6069277;23;20188;-73
2021/04/19 10:25:12;;;;;;;10.43;5.20;;;16.30;94.00;;;;;;6069331;23;20186;-73
2021/04/19 10:27:39;;;;;;;12.17;6.10;;;16.50;92.30;;;;;;6069535;23;20191;-76
2021/04/19 10:30:12;;;;;;;12.77;5.97;;;16.50;92.20;;;;;;6069641;23;20501;-76
2021/04/19 10:32:39;;;;;;;9.33;5.77;;;16.40;92.00;;;;;;6069458;23;20180;-77
2021/04/19 10:35:34;;;;;;;12.47;5.50;;;16.40;92.60;;;;;;6069663;23;20496;-75
2021/04/19 10:38:00;;;;;;;11.97;5.10;;;16.40;92.50;;;;;;6069004;23;20650;-75
2021/04/19 10:40:27;;;;;;;11.93;5.80;;;16.80;92.70;;;;;;6069721;23;20200;-72
2021/04/19 10:42:53;;;;;;;9.63;4.87;;;16.90;92.20;;;;;;6069421;23;20184;-75
2021/04/19 10:45:20;;;;;;;9.93;4.97;;;17.00;91.60;;;;;;6069362;23;20540;-76
2021/04/19 10:47:47;;;;;;;10.37;5.00;;;17.40;91.20;;;;;;6065520;23;20184;-72
2021/04/19 10:50:13;;;;;;;12.60;4.47;;;17.90;91.10;;;;;;6067386;23;20516;-69
2021/04/19 10:52:54;;;;;;;10.77;4.60;;;17.90;90.00;;;;;;6067905;23;20518;-84
2021/04/19 10:55:21;;;;;;;25.30;4.73;;;17.70;90.30;;;;;;6067466;23;20636;-80
2021/04/19 10:57:47;;;;;;;7.40;4.47;;;17.50;90.20;;;;;;6066976;23;20260;-76
2021/04/19 11:00:15;;;;;;;9.30;4.80;;;17.60;90.20;;;;;;6066571;23;20204;-79
2021/04/19 11:02:41;;;;;;;8.40;4.50;;;17.80;89.30;;;;;;6067475;23;20195;-73
2021/04/19 11:05:13;;;;;;;10.87;4.70;;;18.10;91.20;;;;;;6066935;23;20184;-71
2021/04/19 11:07:44;;;;;;;7.97;4.37;;;18.40;90.20;;;;;;6067368;23;20180;-76
2021/04/19 11:10:16;;;;;;;9.03;4.30;;;18.20;87.60;;;;;;6067359;23;20204;-70
2021/04/19 11:13:03;;;;;;;7.90;4.70;;;18.00;88.40;;;;;;6067173;23;20192;-68
2021/04/19 11:15:31;;;;;;;8.67;4.70;;;18.00;87.00;;;;;;6067724;23;20240;-78
2021/04/19 11:17:58;;;;;;;7.67;3.77;;;17.90;88.00;;;;;;6066901;23;20219;-71
2021/04/19 11:20:27;;;;;;;10.97;4.20;;;18.00;87.70;;;;;;6067706;23;20212;-77
2021/04/19 11:22:54;;;;;;;8.77;4.97;;;17.90;87.70;;;;;;6067229;23;20189;-73
2021/04/19 11:25:23;;;;;;;9.53;5.13;;;17.90;87.90;;;;;;6067515;23;20188;-75
2021/04/19 11:27:51;;;;;;;7.27;4.63;;;18.10;87.00;;;;;;6066323;23;20670;-72
2021/04/19 11:30:26;;;;;;;10.47;5.37;;;18.20;87.80;;;;;;6067284;23;20285;-73
2021/04/19 11:33:04;;;;;;;9.70;4.87;;;18.30;86.60;;;;;;6067259;23;20186;-77
2021/04/19 11:35:36;;;;;;;9.50;5.27;;;18.00;86.90;;;;;;6067027;23;20188;-77
2021/04/19 11:38:06;;;;;;;11.50;5.13;;;17.90;87.00;;;;;;6066885;23;20208;-68
2021/04/19 11:40:36;;;;;;;7.20;4.73;;;17.90;87.70;;;;;;6067525;23;20594;-68
2021/04/19 11:43:20;;;;;;;9.23;4.73;;;18.00;86.00;;;;;;6067482;23;20242;-69
2021/04/19 11:45:47;;;;;;;8.37;4.77;;;18.30;87.30;;;;;;6066574;23;20635;-70
2021/04/19 11:48:14;;;;;;;9.03;4.87;;;18.40;85.90;;;;;;6066846;23;20224;-71
2021/04/19 11:50:41;;;;;;;9.30;5.13;;;18.80;86.40;;;;;;6066921;23;20200;-73
2021/04/19 11:53:08;;;;;;;9.13;4.67;;;19.00;85.50;;;;;;6066509;23;20656;-71
2021/04/19 11:55:34;;;;;;;11.30;5.30;;;18.90;85.20;;;;;;6067004;23;20180;-70
2021/04/19 11:58:01;;;;;;;8.67;4.67;;;19.10;84.50;;;;;;6066727;23;20208;-70
2021/04/19 12:00:27;;;;;;;9.37;5.20;;;19.20;84.10;;;;;;6067211;23;20200;-72
2021/04/19 12:02:53;;;;;;;9.40;5.13;;;19.20;84.90;;;;;;6066995;23;20758;-70
2021/04/19 12:05:20;;;;;;;8.27;5.00;;;19.30;84.10;;;;;;6067170;23;20184;-73
2021/04/19 12:07:47;;;;;;;9.83;5.63;;;18.50;85.20;;;;;;6066899;23;20180;-71
2021/04/19 12:10:14;;;;;;;8.60;5.63;;;18.10;86.90;;;;;;6066993;23;20205;-72
2021/04/19 12:12:40;;;;;;;10.67;6.27;;;18.30;87.30;;;;;;6068103;23;20180;-71
2021/04/19 12:15:07;;;;;;;11.80;6.87;;;18.10;88.00;;;;;;6068586;23;20192;-70
2021/04/19 12:17:34;;;;;;;12.20;8.07;;;17.60;90.00;;;;;;6068541;23;20180;-70
2021/04/19 12:20:00;;;;;;;15.93;8.40;;;17.10;91.20;;;;;;6068167;23;20218;-70
2021/04/19 12:22:27;;;;;;;15.60;8.10;;;17.10;91.30;;;;;;6068495;23;20219;-70
2021/04/19 12:24:54;;;;;;;14.77;7.50;;;17.00;91.40;;;;;;6068409;23;20180;-70
2021/04/19 12:27:20;;;;;;;14.03;7.53;;;16.90;91.70;;;;;;6068804;23;20180;-69
2021/04/19 12:29:46;;;;;;;13.17;7.73;;;16.80;91.90;;;;;;6068378;23;20204;-70
2021/04/19 12:32:12;;;;;;;11.40;7.20;;;16.80;91.90;;;;;;6065807;23;20199;-71
2021/04/19 12:34:39;;;;;;;11.50;7.40;;;16.70;92.00;;;;;;6068181;23;20180;-69
2021/04/19 12:37:05;;;;;;;15.87;7.30;;;16.50;91.90;;;;;;6068137;23;20184;-69
2021/04/19 12:39:31;;;;;;;13.57;7.83;;;16.30;92.40;;;;;;6067862;23;20219;-68
2021/04/19 12:41:58;;;;;;;15.27;7.07;;;16.20;92.90;;;;;;6068013;23;20254;-69
2021/04/19 12:44:25;;;;;;;11.47;6.80;;;16.10;92.60;;;;;;6067739;23;20184;-69
2021/04/19 12:46:52;;;;;;;11.83;6.93;;;16.00;93.10;;;;;;6067712;23;20180;-71
2021/04/19 12:49:19;;;;;;;10.60;6.63;;;15.90;93.80;;;;;;6068005;23;20211;-71
2021/04/19 12:51:46;;;;;;;11.40;5.30;;;15.90;93.30;;;;;;6067985;23;20207;-71
2021/04/19 12:54:12;;;;;;;15.93;5.00;;;15.80;93.70;;;;;;6067961;23;20470;-70
2021/04/19 12:56:39;;;;;;;8.70;5.33;;;15.70;94.50;;;;;;6067587;23;20180;-69
2021/04/19 12:59:06;;;;;;;8.97;4.60;;;15.60;94.60;;;;;;6067822;23;20278;-70
2021/04/19 13:01:32;;;;;;;11.47;4.37;;;15.30;95.40;;;;;;6067126;23;20184;-69
2021/04/19 13:03:59;;;;;;;7.13;4.10;;;15.30;96.10;;;;;;6068205;23;20180;-70
2021/04/19 13:06:25;;;;;;;8.90;5.00;;;15.40;96.80;;;;;;6068120;23;20180;-68
2021/04/19 13:08:52;;;;;;;7.87;4.63;;;15.30;97.90;;;;;;6067953;23;20207;-70
2021/04/19 13:11:18;;;;;;;8.97;5.20;;;15.50;98.40;;;;;;6069513;23;20557;-71
2021/04/19 13:13:45;;;;;;;9.47;4.87;;;15.60;99.20;;;;;;6065058;23;20191;-72
2021/04/19 13:16:12;;;;;;;12.23;5.87;;;15.70;99.20;;;;;;6068171;23;20209;-70
2021/04/19 13:18:38;;;;;;;13.20;5.97;;;15.70;98.20;;;;;;6068620;23;20501;-72
2021/04/19 13:21:05;;;;;;;10.73;5.83;;;15.70;98.20;;;;;;6068185;23;20593;-72
2021/04/19 13:23:31;;;;;;;9.03;5.83;;;15.70;97.80;;;;;;6067961;23;20192;-70
2021/04/19 13:25:58;;;;;;;10.43;5.63;;;15.60;97.40;;;;;;6068053;23;20185;-68
2021/04/19 13:28:24;;;;;;;10.73;5.40;;;15.50;97.50;;;;;;6067706;23;20188;-70
2021/04/19 13:30:50;;;;;;;12.10;6.07;;;15.60;97.80;;;;;;6068190;23;20204;-73
2021/04/19 13:33:17;;;;;;;13.30;6.60;;;15.50;97.50;;;;;;6068115;23;20478;-73
2021/04/19 13:35:44;;;;;;;13.43;6.43;;;15.60;97.40;;;;;;6067817;23;20185;-70
2021/04/19 13:38:10;;;;;;;12.27;6.33;;;15.60;97.30;;;;;;6068006;23;20204;-70
2021/04/19 13:40:36;;;;;;;12.90;6.57;;;15.70;97.00;;;;;;6067517;23;20204;-71
2021/04/19 13:43:02;;;;;;;10.87;6.37;;;15.70;97.00;;;;;;6067811;23;20508;-70
2021/04/19 13:45:29;;;;;;;10.13;6.17;;;15.90;96.70;;;;;;6067376;23;20191;-74
2021/04/19 13:47:56;;;;;;;11.60;6.53;;;16.10;96.90;;;;;;6067554;23;20726;-71
2021/04/19 13:50:24;;;;;;;16.63;6.80;;;16.00;96.60;;;;;;6067841;23;20204;-74
2021/04/19 13:52:50;;;;;;;10.40;6.27;;;16.00;97.00;;;;;;6067589;23;20184;-70
2021/04/19 13:55:17;;;;;;;9.43;5.60;;;16.10;96.90;;;;;;6067283;23;20180;-69
2021/04/19 13:57:44;;;;;;;9.83;5.67;;;16.30;96.80;;;;;;6067125;23;20204;-68
2021/04/19 14:00:13;;;;;;;10.97;5.83;;;16.30;96.90;;;;;;6067927;23;20259;-68
2021/04/19 14:02:40;;;;;;;9.80;5.77;;;16.20;96.50;;;;;;6067706;23;20180;-68
2021/04/19 14:05:07;;;;;;;13.40;6.07;;;16.20;96.80;;;;;;6067840;23;20184;-68
2021/04/19 14:07:34;;;;;;;10.57;5.80;;;16.10;97.10;;;;;;6067409;23;20184;-69
2021/04/19 14:10:01;;;;;;;10.87;5.83;;;16.00;97.20;;;;;;6066891;23;20252;-69
2021/04/19 14:12:28;;;;;;;9.63;5.90;;;15.90;97.40;;;;;;6067369;23;20180;-68
2021/04/19 14:14:54;;;;;;;9.27;5.80;;;16.00;97.40;;;;;;6067806;23;20689;-69
2021/04/19 14:17:21;;;;;;;11.00;5.73;;;16.20;97.30;;;;;;6066953;23;20191;-68
2021/04/19 14:19:47;;;;;;;11.43;6.57;;;16.70;96.40;;;;;;6067919;23;20222;-68
2021/04/19 14:22:13;;;;;;;10.97;5.90;;;17.00;96.40;;;;;;6066575;23;20180;-70
2021/04/19 14:24:40;;;;;;;10.20;5.97;;;17.00;95.90;;;;;;6067106;23;20186;-70
2021/04/19 14:27:07;;;;;;;8.87;5.40;;;17.10;95.90;;;;;;6067793;23;20181;-70
2021/04/19 14:29:34;;;;;;;11.40;6.27;;;17.10;96.10;;;;;;6068808;23;20612;-70
2021/04/19 14:32:01;;;;;;;11.30;6.03;;;16.90;96.30;;;;;;6067633;23;20186;-70
2021/04/19 14:34:28;;;;;;;10.20;6.40;;;17.00;96.10;;;;;;6068081;23;20184;-70
2021/04/19 14:36:55;;;;;;;10.03;5.87;;;17.00;96.30;;;;;;6067223;23;20267;-70
2021/04/19 14:39:21;;;;;;;12.30;6.13;;;17.00;96.30;;;;;;6066155;23;20280;-70
2021/04/19 14:41:48;;;;;;;8.83;5.67;;;16.80;96.50;;;;;;6066945;23;20181;-70
2021/04/19 14:44:15;;;;;;;11.23;6.13;;;16.70;97.20;;;;;;6067510;23;20239;-70
2021/04/19 14:46:41;;;;;;;12.40;5.60;;;16.50;97.30;;;;;;6067985;23;20184;-70
2021/04/19 14:49:08;;;;;;;9.17;5.73;;;16.70;96.80;;;;;;6067226;23;20204;-70
2021/04/19 14:51:34;;;;;;;12.37;5.63;;;16.70;96.40;;;;;;6067564;23;20195;-70
2021/04/19 14:54:00;;;;;;;11.07;6.07;;;16.90;96.40;;;;;;6067618;23;20240;-71
2021/04/19 14:56:27;;;;;;;10.30;6.13;;;16.80;96.50;;;;;;6067207;23;20181;-70
2021/04/19 14:58:54;;;;;;;8.53;4.83;;;16.80;96.30;;;;;;6067173;23;20216;-69
2021/04/19 15:01:20;;;;;;;7.33;4.83;;;17.00;95.50;;;;;;6067727;23;20215;-69
2021/04/19 15:03:46;;;;;;;9.60;5.60;;;17.10;95.20;;;;;;6067491;23;20184;-71
2021/04/19 15:06:12;;;;;;;11.10;6.23;;;16.60;96.70;;;;;;6068899;23;20544;-70
2021/04/19 15:08:39;;;;;;;11.70;5.67;;;16.20;98.20;;;;;;6068533;23;20195;-70
2021/04/19 15:11:05;;;;;;;12.13;5.33;;;16.00;99.30;;;;;;6068021;23;20188;-70
2021/04/19 15:13:31;;;;;;;10.03;5.80;;;15.80;99.20;;;;;;6068598;23;20184;-70
2021/04/19 15:15:58;;;;;;;11.43;5.67;;;15.80;99.70;;;;;;6069010;23;20246;-70
2021/04/19 15:18:25;;;;;;;9.10;6.00;;;15.80;99.20;;;;;;6068929;23;20224;-70
2021/04/19 15:20:53;;;;;;;9.80;5.43;;;15.70;99.60;;;;;;6068730;23;20211;-70
2021/04/19 15:23:19;;;;;;;7.30;4.50;;;15.50;99.60;;;;;;6068638;23;20196;-70
2021/04/19 15:25:45;;;;;;;7.07;4.57;;;15.50;99.80;;;;;;6068411;23;20544;-70
2021/04/19 15:28:12;;;;;;;7.17;4.43;;;15.30;99.90;;;;;;6068662;23;20194;-70
2021/04/19 15:30:38;;;;;;;11.00;4.97;;;15.20;99.90;;;;;;6068383;23;20216;-70
2021/04/19 15:33:06;;;;;;;7.30;4.43;;;15.00;99.90;;;;;;6068434;23;20263;-70
2021/04/19 15:35:32;;;;;;;6.67;4.57;;;14.90;99.90;;;;;;6068523;23;20186;-70
2021/04/19 15:37:59;;;;;;;12.30;5.30;;;14.90;99.90;;;;;;6067927;23;20236;-70
2021/04/19 15:40:25;;;;;;;10.97;4.63;;;14.80;99.90;;;;;;6068964;23;20204;-70
2021/04/19 15:42:52;;;;;;;10.03;5.03;;;14.80;99.90;;;;;;6068783;23;20189;-70
2021/04/19 15:45:18;;;;;;;8.77;4.97;;;14.80;99.90;;;;;;6068459;23;20654;-70
2021/04/19 15:47:44;;;;;;;9.13;5.07;;;14.90;99.90;;;;;;6068381;23;20628;-70
2021/04/19 15:50:13;;;;;;;8.07;4.57;;;15.00;99.90;;;;;;6068520;23;20204;-70
2021/04/19 15:52:39;;;;;;;10.17;4.90;;;15.00;99.90;;;;;;6068810;23;20192;-70
2021/04/19 15:55:07;;;;;;;9.33;5.13;;;14.90;99.90;;;;;;6068693;23;20188;-70
2021/04/19 15:57:33;;;;;;;6.30;3.90;;;14.90;99.90;;;;;;6068170;23;20180;-70
2021/04/19 15:59:59;;;;;;;9.00;4.87;;;15.00;99.90;;;;;;6068075;23;20212;-70
2021/04/19 16:02:26;;;;;;;7.80;4.70;;;15.00;99.90;;;;;;6068232;23;20504;-70
2021/04/19 16:04:52;;;;;;;9.50;4.87;;;14.90;99.90;;;;;;6068859;23;20188;-70
2021/04/19 16:07:19;;;;;;;7.40;4.43;;;15.00;99.90;;;;;;6068329;23;20735;-71
2021/04/19 16:09:45;;;;;;;8.70;5.10;;;14.90;99.90;;;;;;6068466;23;20230;-70
2021/04/19 16:12:12;;;;;;;7.17;4.60;;;14.80;99.90;;;;;;6068604;23;20180;-70
2021/04/19 16:14:38;;;;;;;8.27;4.67;;;14.70;99.90;;;;;;6068621;23;20508;-70
2021/04/19 16:17:04;;;;;;;9.57;4.77;;;14.70;99.90;;;;;;6068194;23;20184;-71
2021/04/19 16:19:33;;;;;;;6.93;4.23;;;14.70;99.90;;;;;;6068229;23;20283;-70
2021/04/19 16:22:00;;;;;;;7.43;4.80;;;14.70;99.90;;;;;;6068349;23;20267;-70
2021/04/19 16:24:28;;;;;;;7.47;4.37;;;14.90;99.90;;;;;;6067808;23;20188;-70
2021/04/19 16:26:54;;;;;;;8.27;4.73;;;14.90;99.90;;;;;;6068267;23;20223;-70
2021/04/19 16:29:20;;;;;;;8.70;4.63;;;14.80;99.90;;;;;;6068111;23;20204;-70
2021/04/19 16:31:48;;;;;;;8.80;5.17;;;14.90;99.90;;;;;;6068524;23;20181;-70
2021/04/19 16:34:14;;;;;;;7.70;4.87;;;15.20;99.90;;;;;;6068069;23;20184;-70
2021/04/19 16:36:40;;;;;;;9.33;5.10;;;15.10;99.90;;;;;;6062765;23;20191;-69
2021/04/19 16:39:07;;;;;;;9.00;4.60;;;14.80;99.90;;;;;;6066296;23;20239;-68
2021/04/19 16:41:34;;;;;;;9.07;5.53;;;14.50;99.90;;;;;;6066081;23;20188;-68
2021/04/19 16:44:00;;;;;;;7.93;4.70;;;14.40;99.90;;;;;;6067253;23;20231;-70
2021/04/19 16:46:26;;;;;;;10.33;5.03;;;14.40;99.90;;;;;;6067994;23;20537;-69
2021/04/19 16:48:52;;;;;;;7.03;4.67;;;14.50;99.90;;;;;;6068842;23;20236;-69
2021/04/19 16:51:19;;;;;;;8.83;5.00;;;14.30;99.90;;;;;;6068928;23;20180;-69
2021/04/19 16:53:45;;;;;;;7.40;4.67;;;14.10;99.90;;;;;;6068149;23;20190;-70
2021/04/19 16:56:12;;;;;;;10.33;5.00;;;14.00;99.90;;;;;;6068432;23;20239;-70
2021/04/19 16:58:39;;;;;;;8.10;5.00;;;14.20;99.90;;;;;;6067597;23;20519;-69
2021/04/19 17:01:05;;;;;;;8.23;5.30;;;14.50;99.90;;;;;;6067994;23;20658;-69
2021/04/19 17:03:32;;;;;;;8.47;4.63;;;14.40;99.90;;;;;;6068538;23;20181;-70
2021/04/19 17:05:58;;;;;;;9.27;5.33;;;14.50;99.90;;;;;;6068559;23;20184;-70
2021/04/19 17:08:24;;;;;;;7.47;4.70;;;14.60;99.90;;;;;;6064168;23;20234;-70
2021/04/19 17:10:50;;;;;;;7.83;4.97;;;14.70;99.90;;;;;;6067852;23;20957;-69
2021/04/19 17:13:17;;;;;;;7.33;4.67;;;14.50;99.90;;;;;;6067902;23;20648;-72
2021/04/19 17:15:44;;;;;;;7.43;5.00;;;14.50;99.90;;;;;;6068404;23;20184;-71
2021/04/19 17:18:10;;;;;;;7.17;5.03;;;14.30;99.90;;;;;;6068879;23;20232;-68
2021/04/19 17:20:36;;;;;;;8.80;5.10;;;14.20;99.90;;;;;;6069387;23;20584;-68
2021/04/19 17:23:03;;;;;;;8.50;5.07;;;14.10;99.90;;;;;;6069135;23;20291;-68
2021/04/19 17:25:29;;;;;;;10.23;5.00;;;14.30;99.90;;;;;;6064910;23;20181;-69
2021/04/19 17:27:55;;;;;;;10.90;5.47;;;14.20;99.90;;;;;;6067212;23;20180;-69
2021/04/19 17:30:24;;;;;;;9.53;5.00;;;14.10;99.90;;;;;;6069651;23;20204;-69
2021/04/19 17:32:52;;;;;;;9.43;4.90;;;14.00;99.90;;;;;;6069789;23;20180;-69
2021/04/19 17:35:20;;;;;;;9.07;5.27;;;14.10;99.90;;;;;;6069309;23;20180;-70
2021/04/19 17:37:46;;;;;;;8.20;5.57;;;14.10;99.90;;;;;;6069217;23;20191;-70
2021/04/19 17:40:13;;;;;;;8.23;5.43;;;14.00;99.90;;;;;;6069353;23;20216;-69
2021/04/19 17:42:40;;;;;;;7.37;4.90;;;14.00;99.90;;;;;;6069738;23;20184;-69
2021/04/19 17:45:08;;;;;;;10.03;5.60;;;14.20;99.90;;;;;;6070058;23;20180;-69
2021/04/19 17:47:35;;;;;;;6.70;4.47;;;14.30;99.90;;;;;;6070037;23;20200;-69
2021/04/19 17:50:03;;;;;;;10.47;5.50;;;14.40;99.90;;;;;;6069433;23;20208;-69
2021/04/19 17:52:30;;;;;;;8.33;4.87;;;14.40;99.90;;;;;;6069301;23;20240;-71
2021/04/19 17:54:56;;;;;;;9.77;5.70;;;14.30;99.90;;;;;;6069497;23;20494;-69
2021/04/19 17:57:22;;;;;;;9.10;5.43;;;14.30;99.90;;;;;;6069879;23;20181;-68
2021/04/19 17:59:48;;;;;;;8.63;5.13;;;14.20;99.90;;;;;;6069500;23;20220;-68
2021/04/19 18:02:15;;;;;;;9.23;5.30;;;14.10;99.90;;;;;;6069657;23;20181;-69
2021/04/19 18:04:41;;;;;;;8.03;5.00;;;14.10;99.90;;;;;;6069888;23;20187;-67
2021/04/19 18:07:08;;;;;;;8.53;4.87;;;14.00;99.90;;;;;;6069686;23;20180;-68
2021/04/19 18:09:34;;;;;;;8.33;4.93;;;13.90;99.90;;;;;;6069031;23;20237;-68
2021/04/19 18:12:01;;;;;;;9.93;5.40;;;13.80;99.90;;;;;;6069227;23;20181;-68
2021/04/19 18:14:30;;;;;;;7.00;4.77;;;13.70;99.90;;;;;;6069139;23;20211;-68
2021/04/19 18:16:56;;;;;;;7.67;5.27;;;13.60;99.90;;;;;;6069248;23;20195;-68
2021/04/19 18:19:22;;;;;;;8.10;5.13;;;13.50;99.90;;;;;;6068580;23;20211;-68
2021/04/19 18:21:49;;;;;;;11.53;5.23;;;13.40;99.90;;;;;;6069532;23;20185;-68
2021/04/19 18:24:17;;;;;;;12.00;5.17;;;13.30;99.90;;;;;;6068890;23;20203;-68
2021/04/19 18:26:43;;;;;;;11.13;5.30;;;13.20;99.90;;;;;;6069144;23;20185;-68
2021/04/19 18:29:09;;;;;;;7.63;5.03;;;13.20;99.90;;;;;;6068922;23;20207;-68
2021/04/19 18:31:38;;;;;;;9.80;5.40;;;13.10;99.90;;;;;;6068787;23;20184;-68
2021/04/19 18:34:05;;;;;;;11.40;5.47;;;12.90;99.90;;;;;;6069051;23;20246;-68
2021/04/19 18:36:31;;;;;;;9.97;4.93;;;12.90;99.90;;;;;;6069030;23;20187;-68
2021/04/19 18:38:58;;;;;;;9.67;5.40;;;12.70;99.90;;;;;;6068889;23;20219;-68
2021/04/19 18:41:25;;;;;;;8.90;5.53;;;12.60;99.90;;;;;;6069083;23;20240;-67
2021/04/19 18:43:51;;;;;;;9.70;5.53;;;12.60;99.90;;;;;;6068430;23;20185;-71
2021/04/19 18:46:18;;;;;;;10.27;5.53;;;12.50;99.90;;;;;;6063209;23;20184;-68
2021/04/19 18:48:45;;;;;;;10.70;5.77;;;12.40;99.90;;;;;;6067780;23;20184;-68
2021/04/19 18:51:12;;;;;;;11.80;6.20;;;12.30;99.90;;;;;;6069245;23;20192;-68
2021/04/19 18:53:38;;;;;;;9.33;5.40;;;12.20;99.90;;;;;;6068905;23;20180;-68
2021/04/19 18:56:05;;;;;;;10.23;5.57;;;12.10;99.90;;;;;;6069389;23;20180;-69
2021/04/19 18:58:32;;;;;;;8.47;5.33;;;12.00;99.90;;;;;;6069331;23;20204;-68
2021/04/19 19:00:59;;;;;;;10.10;5.07;;;11.90;99.90;;;;;;6068709;23;20197;-69
2021/04/19 19:03:25;;;;;;;9.93;4.90;;;11.80;99.90;;;;;;6069270;23;20181;-69
2021/04/19 19:05:51;;;;;;;9.30;5.47;;;11.70;99.90;;;;;;6069391;23;20187;-68
2021/04/19 19:08:17;;;;;;;10.23;5.03;;;11.60;99.90;;;;;;6068806;23;20180;-68
2021/04/19 19:10:44;;;;;;;9.07;5.50;;;11.50;99.90;;;;;;6069039;23;20223;-68
2021/04/19 19:13:10;;;;;;;11.30;6.00;;;11.40;99.90;;;;;;6071437;23;20180;-67
2021/04/19 19:15:37;;;;;;;12.87;6.30;;;11.30;99.90;;;;;;6068967;23;20188;-68
2021/04/19 19:18:04;;;;;;;11.00;6.53;;;11.30;99.90;;;;;;6068992;23;20184;-68
2021/04/19 19:20:30;;;;;;;10.37;5.87;;;11.30;99.90;;;;;;6069411;23;20216;-68
2021/04/19 19:22:56;;;;;;;9.73;5.93;;;11.20;99.90;;;;;;6070346;23;20243;-69
2021/04/19 19:25:23;;;;;;;9.90;5.50;;;11.20;99.90;;;;;;6069780;23;20180;-68
2021/04/19 19:27:50;;;;;;;10.57;5.57;;;11.10;99.90;;;;;;6069304;23;20191;-68
2021/04/19 19:30:17;;;;;;;10.63;6.13;;;11.00;99.90;;;;;;6069037;23;20676;-69
2021/04/19 19:32:44;;;;;;;12.27;6.33;;;11.00;99.90;;;;;;6070182;23;20188;-67
2021/04/19 19:35:12;;;;;;;9.70;5.87;;;10.90;99.90;;;;;;6069417;23;20181;-71
2021/04/19 19:37:39;;;;;;;11.60;6.43;;;10.90;99.90;;;;;;6068757;23;20188;-69
2021/04/19 19:40:07;;;;;;;10.67;5.90;;;10.90;99.90;;;;;;6069062;23;20219;-68
2021/04/19 19:42:33;;;;;;;9.47;6.00;;;10.80;99.90;;;;;;6068430;23;20254;-68
2021/04/19 19:44:59;;;;;;;14.87;6.57;;;10.70;99.90;;;;;;6069059;23;20181;-69
2021/04/19 19:47:26;;;;;;;8.93;5.90;;;10.60;99.90;;;;;;6068586;23;20184;-68
2021/04/19 19:49:53;;;;;;;14.63;6.70;;;10.60;99.90;;;;;;6068692;23;20259;-71
2021/04/19 19:52:20;;;;;;;12.03;6.60;;;10.60;99.90;;;;;;6068762;23;20191;-69
2021/04/19 19:54:46;;;;;;;11.73;6.47;;;10.50;99.90;;;;;;6068700;23;20219;-69
2021/04/19 19:57:12;;;;;;;13.57;6.97;;;10.40;99.90;;;;;;6068315;23;20185;-68
2021/04/19 19:59:40;;;;;;;9.63;6.27;;;10.30;99.90;;;;;;6068862;23;20222;-69
2021/04/19 20:02:07;;;;;;;11.67;6.07;;;10.30;99.90;;;;;;6069426;23;20184;-69
2021/04/19 20:04:33;;;;;;;11.57;6.63;;;10.30;99.90;;;;;;6068976;23;20181;-69
2021/04/19 20:07:00;;;;;;;9.27;6.07;;;10.20;99.90;;;;;;6068802;23;20184;-69
2021/04/19 20:09:26;;;;;;;10.53;6.17;;;10.10;99.90;;;;;;6069128;23;20200;-69
2021/04/19 20:11:53;;;;;;;11.33;6.90;;;10.10;99.90;;;;;;6069220;23;20496;-69
2021/04/19 20:14:19;;;;;;;11.70;6.57;;;10.30;99.90;;;;;;6068821;23;20181;-69
2021/04/19 20:16:45;;;;;;;10.60;6.40;;;10.40;99.90;;;;;;6068887;23;20187;-70
2021/04/19 20:19:11;;;;;;;11.03;6.30;;;10.50;99.90;;;;;;6069070;23;20223;-70
2021/04/19 20:21:38;;;;;;;12.50;6.30;;;10.50;99.90;;;;;;6068957;23;20188;-70
2021/04/19 20:24:06;;;;;;;14.47;6.17;;;10.50;99.90;;;;;;6068141;23;20597;-70
2021/04/19 20:26:32;;;;;;;13.13;7.23;;;10.50;99.90;;;;;;6068181;23;20199;-70
2021/04/19 20:28:58;;;;;;;11.93;6.17;;;10.60;99.90;;;;;;6068378;23;20211;-70
2021/04/19 20:31:25;;;;;;;9.70;5.77;;;10.70;99.90;;;;;;6068106;23;20690;-70
2021/04/19 20:33:51;;;;;;;8.60;5.43;;;10.80;99.90;;;;;;6068624;23;20231;-70
2021/04/19 20:36:18;;;;;;;14.00;5.87;;;10.80;99.90;;;;;;6068431;23;20192;-70
2021/04/19 20:38:44;;;;;;;10.13;6.40;;;10.70;99.90;;;;;;6068425;23;20215;-70
2021/04/19 20:41:12;;;;;;;9.20;6.30;;;10.50;99.90;;;;;;6068405;23;20180;-70
2021/04/19 20:43:38;;;;;;;8.87;5.47;;;10.40;99.90;;;;;;6068417;23;20184;-70
2021/04/19 20:46:05;;;;;;;9.80;6.13;;;10.40;99.90;;;;;;6068737;23;20181;-70
2021/04/19 20:48:31;;;;;;;12.57;6.83;;;10.30;99.90;;;;;;6068268;23;20181;-70
2021/04/19 20:50:57;;;;;;;10.73;6.40;;;10.30;99.90;;;;;;6068499;23;20201;-70
